Time;durP1;ratioP1;P1;durP2;ratioP2;P2;SDS_P1;SDS_P2;PMS_P1;PMS_P2;Temp;Humidity;BMP_temperature;BMP_pressure;BME280_temperature;BME280_humidity;BME280_pressure;Samples;Min_cycle;Max_cycle;Signal;HPM_P1;HPM_P2
2023/07/26 00:02:04;;;;;;;12.03;10.93;;;;;;;20.36;86.42;98196.59;5000487;27;103463;-61
2023/07/26 00:04:32;;;;;;;14.10;12.90;;;;;;;19.81;88.40;98208.50;5027454;27;103017;-61
2023/07/26 00:07:00;;;;;;;14.52;13.18;;;;;;;19.99;87.76;98200.94;5017619;27;103682;-61
2023/07/26 00:09:28;;;;;;;11.55;10.65;;;;;;;20.48;86.25;98205.84;5017681;27;103387;-61
2023/07/26 00:11:58;;;;;;;10.85;9.95;;;;;;;20.67;85.36;98206.13;4996810;28;104181;-60
2023/07/26 00:14:27;;;;;;;13.02;11.80;;;;;;;20.22;86.29;98212.47;5013795;27;102611;-60
2023/07/26 00:16:55;;;;;;;12.45;11.35;;;;;;;20.41;85.65;98215.63;5018311;27;103925;-61
2023/07/26 00:19:23;;;;;;;12.37;11.37;;;;;;;20.61;84.66;98219.44;5009662;27;103092;-60
2023/07/26 00:21:52;;;;;;;12.82;11.73;;;;;;;20.85;83.89;98213.81;5016832;27;103266;-61
2023/07/26 00:24:20;;;;;;;11.43;10.52;;;;;;;20.77;84.38;98219.28;4996628;27;102872;-60
2023/07/26 00:26:48;;;;;;;14.00;12.70;;;;;;;20.37;85.30;98222.41;5015725;27;103753;-61
2023/07/26 00:29:18;;;;;;;14.07;12.77;;;;;;;19.97;88.84;98224.44;5023390;27;103923;-61
2023/07/26 00:31:46;;;;;;;12.25;11.25;;;;;;;20.34;87.39;98225.44;5021294;27;103079;-61
2023/07/26 00:34:15;;;;;;;14.43;13.13;;;;;;;20.07;87.53;98225.00;5019781;27;102701;-61
2023/07/26 00:36:43;;;;;;;13.38;12.13;;;;;;;20.39;86.77;98228.41;5022646;27;103191;-61
2023/07/26 00:39:15;;;;;;;12.77;11.57;;;;;;;20.38;86.88;98227.56;5018174;27;104177;-61
2023/07/26 00:41:43;;;;;;;15.27;13.70;;;;;;;19.65;89.74;98222.00;5020827;27;103378;-61
2023/07/26 00:44:11;;;;;;;15.00;13.70;;;;;;;19.59;90.29;98230.78;5017927;27;103225;-61
2023/07/26 00:46:41;;;;;;;12.05;11.00;;;;;;;20.33;87.68;98223.78;5014351;27;102986;-63
2023/07/26 00:49:10;;;;;;;10.50;9.60;;;;;;;20.39;87.68;98225.72;4989718;28;103844;-64
2023/07/26 00:51:39;;;;;;;11.55;10.65;;;;;;;20.53;86.25;98227.59;4992400;28;103273;-64
2023/07/26 00:54:10;;;;;;;9.70;8.90;;;;;;;20.76;84.92;98231.00;4999736;28;102790;-63
2023/07/26 00:56:38;;;;;;;11.60;10.53;;;;;;;20.62;85.13;98239.91;4991466;28;104671;-64
2023/07/26 00:59:06;;;;;;;12.48;11.20;;;;;;;20.36;85.67;98234.97;4996271;27;104432;-64
2023/07/26 01:01:35;;;;;;;11.27;10.38;;;;;;;20.40;87.81;98235.44;4993550;28;103036;-64
2023/07/26 01:04:08;;;;;;;12.63;11.63;;;;;;;20.34;86.77;98236.19;5017154;27;102915;-63
2023/07/26 01:06:42;;;;;;;10.82;9.90;;;;;;;20.52;86.13;98234.00;4981841;28;102889;-64
2023/07/26 01:09:21;;;;;;;13.48;12.18;;;;;;;20.23;86.85;98240.13;5015468;27;103369;-60
2023/07/26 01:11:59;;;;;;;10.25;9.25;;;;;;;20.70;84.89;98237.13;5011628;27;104286;-60
2023/07/26 01:14:34;;;;;;;10.80;9.90;;;;;;;20.42;86.30;98246.81;5014927;27;104397;-61
2023/07/26 01:17:04;;;;;;;13.05;11.63;;;;;;;19.93;87.43;98243.75;4993585;27;104025;-61
2023/07/26 01:19:34;;;;;;;12.57;11.40;;;;;;;19.34;91.76;98245.31;4992418;28;104624;-61
2023/07/26 01:22:04;;;;;;;9.27;8.40;;;;;;;20.21;88.42;98250.16;4997198;27;103238;-61
2023/07/26 01:24:32;;;;;;;9.25;8.38;;;;;;;20.40;86.92;98246.19;4993326;28;103165;-64
2023/07/26 01:27:00;;;;;;;10.05;9.15;;;;;;;20.44;85.76;98234.88;5007887;27;103855;-64
2023/07/26 01:29:29;;;;;;;9.18;8.40;;;;;;;20.26;85.22;98238.94;5008990;27;103977;-61
2023/07/26 01:32:00;;;;;;;10.52;9.48;;;;;;;19.86;87.06;98243.63;4995834;28;103227;-64
2023/07/26 01:34:28;;;;;;;9.75;8.75;;;;;;;20.05;87.18;98243.13;5011981;27;102729;-61
2023/07/26 01:37:00;;;;;;;9.02;8.25;;;;;;;20.35;84.88;98249.41;4990891;28;104510;-61
2023/07/26 01:39:31;;;;;;;10.93;9.52;;;;;;;20.23;85.18;98257.06;4986996;27;103301;-62
2023/07/26 01:42:00;;;;;;;8.67;7.97;;;;;;;20.12;85.55;98249.44;5020949;27;103232;-61
2023/07/26 01:44:37;;;;;;;7.47;6.90;;;;;;;20.36;85.38;98255.59;4988832;28;103038;-64
2023/07/26 01:47:07;;;;;;;9.77;8.93;;;;;;;20.09;85.32;98251.66;4989048;27;102922;-62
2023/07/26 01:49:37;;;;;;;8.07;7.47;;;;;;;20.43;85.49;98245.81;5015644;27;104139;-61
2023/07/26 01:52:07;;;;;;;9.80;7.68;;;;;;;20.10;86.05;98254.13;5021063;27;103266;-62
2023/07/26 01:54:38;;;;;;;5.00;4.60;;;;;;;20.65;84.40;98255.63;4995590;27;102729;-61
2023/07/26 01:57:08;;;;;;;7.40;6.80;;;;;;;20.51;84.63;98254.63;4987737;27;102743;-64
2023/07/26 01:59:36;;;;;;;8.70;7.90;;;;;;;20.13;85.48;98260.97;4989662;28;104567;-64
2023/07/26 02:02:05;;;;;;;6.83;6.30;;;;;;;20.36;85.27;98263.66;5011719;28;103087;-64
2023/07/26 02:04:35;;;;;;;6.97;6.28;;;;;;;20.55;84.13;98261.25;5013793;27;102785;-64
2023/07/26 02:07:03;;;;;;;7.20;6.60;;;;;;;20.69;83.51;98263.13;4989510;28;103145;-64
2023/07/26 02:09:31;;;;;;;7.50;6.90;;;;;;;19.97;87.03;98263.81;4991644;28;104278;-64
2023/07/26 02:12:01;;;;;;;6.67;6.10;;;;;;;20.16;86.69;98264.13;4991387;27;104267;-61
2023/07/26 02:14:29;;;;;;;6.90;6.20;;;;;;;20.12;85.79;98265.53;5008343;27;102854;-64
2023/07/26 02:16:58;;;;;;;7.87;7.07;;;;;;;20.18;85.56;98264.78;5010335;27;102968;-62
2023/07/26 02:19:26;;;;;;;6.80;6.10;;;;;;;19.99;86.24;98270.66;4991523;28;104231;-64
2023/07/26 02:21:56;;;;;;;5.50;5.10;;;;;;;20.27;85.38;98275.50;4993837;27;104183;-62
2023/07/26 02:24:24;;;;;;;6.82;5.88;;;;;;;19.94;84.83;98273.03;4988904;28;102931;-64
2023/07/26 02:26:52;;;;;;;5.25;4.70;;;;;;;19.80;83.37;98278.34;5004763;27;104261;-61
2023/07/26 02:29:22;;;;;;;4.50;4.10;;;;;;;20.05;81.70;98272.63;5011654;28;104234;-64
2023/07/26 02:31:50;;;;;;;4.27;3.90;;;;;;;20.07;82.70;98275.13;4988270;28;103366;-64
2023/07/26 02:34:18;;;;;;;5.13;4.53;;;;;;;20.08;81.82;98274.09;5000781;27;103024;-65
2023/07/26 02:36:46;;;;;;;4.03;3.63;;;;;;;20.26;81.01;98277.34;4995426;27;104190;-62
2023/07/26 02:39:15;;;;;;;3.60;3.40;;;;;;;20.39;81.04;98279.38;5013344;27;104155;-63
2023/07/26 02:41:43;;;;;;;4.00;3.60;;;;;;;20.39;80.97;98287.44;5007959;27;104626;-61
2023/07/26 02:44:11;;;;;;;2.90;2.70;;;;;;;20.59;79.64;98283.22;4996128;27;102723;-61
2023/07/26 02:46:43;;;;;;;5.20;4.70;;;;;;;19.83;83.24;98286.88;5015213;27;102628;-64
2023/07/26 02:49:11;;;;;;;4.95;4.45;;;;;;;20.04;82.88;98289.72;4995760;27;104312;-64
2023/07/26 02:51:39;;;;;;;4.18;3.78;;;;;;;20.05;80.63;98286.03;5011710;27;103275;-62
2023/07/26 02:54:09;;;;;;;3.42;3.20;;;;;;;20.28;80.42;98293.22;5012529;27;102691;-62
2023/07/26 02:56:38;;;;;;;3.00;2.80;;;;;;;20.34;79.08;98301.41;5003938;27;104105;-64
2023/07/26 02:59:06;;;;;;;3.30;3.08;;;;;;;20.05;81.45;98296.75;4999215;27;104421;-65
2023/07/26 03:01:34;;;;;;;4.05;3.58;;;;;;;19.91;80.16;98300.22;4989440;27;104410;-65
2023/07/26 03:04:05;;;;;;;4.95;3.40;;;;;;;19.62;81.24;98311.63;5017109;27;102733;-62
2023/07/26 03:06:33;;;;;;;3.70;3.00;;;;;;;20.07;80.12;98310.00;4994711;28;102814;-61
2023/07/26 03:09:01;;;;;;;3.03;2.80;;;;;;;20.02;81.16;98307.84;5012933;27;104131;-62
2023/07/26 03:11:31;;;;;;;2.97;2.77;;;;;;;19.95;80.80;98309.56;5015542;27;103053;-65
2023/07/26 03:13:59;;;;;;;4.88;3.47;;;;;;;19.40;82.41;98316.94;5021220;27;102720;-65
2023/07/26 03:16:28;;;;;;;4.00;3.45;;;;;;;19.70;82.95;98305.41;4991292;27;104350;-62
2023/07/26 03:18:56;;;;;;;4.38;3.38;;;;;;;19.77;81.82;98317.06;5014057;27;104287;-62
2023/07/26 03:21:25;;;;;;;4.05;2.80;;;;;;;19.74;82.66;98314.75;4994339;28;104353;-62
2023/07/26 03:23:53;;;;;;;4.00;3.60;;;;;;;18.98;84.70;98323.47;4997262;27;102865;-61
2023/07/26 03:26:21;;;;;;;4.97;3.63;;;;;;;19.06;84.54;98331.47;5015185;27;103315;-60
2023/07/26 03:28:50;;;;;;;4.43;4.03;;;;;;;17.95;89.15;98334.09;5013871;27;103211;-59
2023/07/26 03:31:18;;;;;;;3.88;3.47;;;;;;;18.37;87.43;98328.56;5017175;27;103217;-62
2023/07/26 03:33:46;;;;;;;3.42;3.13;;;;;;;18.55;88.75;98331.94;5017514;27;102570;-61
2023/07/26 03:36:17;;;;;;;4.40;3.92;;;;;;;18.74;87.40;98331.56;5010400;27;104488;-64
2023/07/26 03:38:47;;;;;;;3.85;3.55;;;;;;;18.69;86.75;98338.44;4993839;27;104237;-65
2023/07/26 03:41:15;;;;;;;3.63;3.35;;;;;;;18.42;89.21;98336.91;5015580;28;103267;-64
2023/07/26 03:43:44;;;;;;;3.60;3.28;;;;;;;18.99;86.38;98335.84;5004860;27;102751;-63
2023/07/26 03:46:14;;;;;;;2.60;2.40;;;;;;;19.34;84.79;98331.03;5010800;27;103986;-63
2023/07/26 03:48:43;;;;;;;2.47;2.28;;;;;;;19.46;84.00;98338.50;4987038;28;103382;-63
2023/07/26 03:51:12;;;;;;;3.42;3.13;;;;;;;19.63;82.51;98337.41;4965799;28;102963;-63
2023/07/26 03:53:41;;;;;;;3.00;2.70;;;;;;;19.73;81.65;98339.88;4990436;27;103036;-64
2023/07/26 03:56:13;;;;;;;4.18;3.78;;;;;;;19.02;84.10;98345.38;5003549;27;103823;-63
2023/07/26 03:58:43;;;;;;;2.50;2.28;;;;;;;19.61;83.09;98349.31;5000755;27;103490;-63
2023/07/26 04:01:14;;;;;;;4.47;3.93;;;;;;;18.54;86.24;98351.66;5008104;27;103905;-63
2023/07/26 04:03:44;;;;;;;4.07;3.67;;;;;;;18.82;85.57;98336.91;5013872;28;103395;-63
2023/07/26 04:06:13;;;;;;;6.07;4.35;;;;;;;18.10;88.22;98350.31;5018317;27;102780;-63
2023/07/26 04:08:42;;;;;;;3.53;3.22;;;;;;;18.82;86.52;98349.44;5016750;27;103429;-63
2023/07/26 04:11:14;;;;;;;4.30;3.90;;;;;;;18.20;88.69;98359.00;5019104;27;103422;-63
2023/07/26 04:13:42;;;;;;;4.30;3.90;;;;;;;18.64;87.87;98352.31;5020069;27;102714;-63
2023/07/26 04:16:16;;;;;;;3.90;3.50;;;;;;;19.25;85.30;98350.81;5015827;27;103968;-64
2023/07/26 04:18:47;;;;;;;4.32;3.92;;;;;;;18.99;84.98;98351.06;5014763;27;103242;-65
2023/07/26 04:21:17;;;;;;;4.10;3.78;;;;;;;19.32;84.11;98351.78;5011754;27;102978;-62
2023/07/26 04:23:47;;;;;;;4.13;3.70;;;;;;;19.07;84.69;98365.25;5009800;27;104165;-62
2023/07/26 04:26:19;;;;;;;3.70;3.40;;;;;;;19.27;84.82;98359.50;5018322;27;103518;-63
2023/07/26 04:28:48;;;;;;;4.30;3.90;;;;;;;19.11;84.75;98358.53;4988575;28;102933;-61
2023/07/26 04:31:18;;;;;;;4.85;3.92;;;;;;;19.21;85.66;98365.53;5013326;28;103257;-61
2023/07/26 04:33:49;;;;;;;4.93;4.53;;;;;;;19.08;85.08;98360.75;5013848;27;102710;-62
2023/07/26 04:36:20;;;;;;;4.93;4.47;;;;;;;19.29;84.65;98368.19;5014830;28;102784;-60
2023/07/26 04:38:51;;;;;;;3.88;3.50;;;;;;;19.75;83.39;98363.81;4998082;28;103021;-61
2023/07/26 04:41:22;;;;;;;3.70;3.40;;;;;;;19.79;83.17;98359.78;5018046;27;102977;-61
2023/07/26 04:43:52;;;;;;;3.50;3.30;;;;;;;19.74;83.69;98362.13;5018924;27;102895;-61
2023/07/26 04:46:22;;;;;;;3.95;3.65;;;;;;;19.99;82.22;98366.34;4997383;27;102746;-62
2023/07/26 04:48:53;;;;;;;3.30;3.10;;;;;;;20.12;81.91;98370.13;5011318;27;105012;-63
2023/07/26 04:51:23;;;;;;;4.05;3.75;;;;;;;20.08;80.40;98365.28;5013093;27;103270;-63
2023/07/26 04:53:53;;;;;;;4.15;3.75;;;;;;;19.50;83.65;98377.34;4993163;28;103716;-60
2023/07/26 04:56:26;;;;;;;2.88;2.65;;;;;;;20.02;83.00;98366.81;5007674;28;102699;-63
2023/07/26 04:58:56;;;;;;;3.80;3.40;;;;;;;20.24;81.84;98375.88;4995488;28;104289;-63
2023/07/26 05:01:27;;;;;;;3.22;3.03;;;;;;;20.35;80.67;98380.84;5014802;28;103213;-63
2023/07/26 05:03:57;;;;;;;5.07;4.43;;;;;;;19.51;83.57;98384.34;5016304;27;104316;-61
2023/07/26 05:06:26;;;;;;;5.80;5.30;;;;;;;19.13;85.30;98400.38;4990821;28;102773;-61
2023/07/26 05:08:56;;;;;;;5.78;5.28;;;;;;;18.31;88.62;98399.63;4995766;27;104141;-60
2023/07/26 05:11:27;;;;;;;5.90;5.30;;;;;;;18.13;90.80;98395.44;5015045;27;103002;-63
2023/07/26 05:13:58;;;;;;;6.07;5.47;;;;;;;18.35;89.71;98406.31;5000889;27;102796;-61
2023/07/26 05:16:34;;;;;;;5.03;4.57;;;;;;;18.62;90.03;98402.47;5007457;27;103985;-61
2023/07/26 05:19:05;;;;;;;4.30;3.90;;;;;;;19.57;85.71;98399.75;4982217;27;103493;-61
2023/07/26 05:21:42;;;;;;;3.92;3.58;;;;;;;19.95;84.09;98398.03;4996078;27;104822;-61
2023/07/26 05:24:13;;;;;;;5.28;4.80;;;;;;;19.91;82.73;98407.44;4992969;28;102758;-61
2023/07/26 05:26:45;;;;;;;4.80;4.13;;;;;;;20.21;81.88;98409.25;4983724;28;103037;-61
2023/07/26 05:29:15;;;;;;;5.30;4.80;;;;;;;19.50;83.42;98406.81;4983047;28;103144;-64
2023/07/26 05:31:45;;;;;;;4.40;4.00;;;;;;;19.36;82.41;98409.34;5000638;28;103365;-63
2023/07/26 05:34:15;;;;;;;4.80;4.40;;;;;;;19.56;83.02;98407.97;5003802;28;104277;-63
2023/07/26 05:36:44;;;;;;;4.50;4.10;;;;;;;19.80;81.69;98410.50;5007652;28;104069;-64
2023/07/26 05:39:16;;;;;;;4.70;3.70;;;;;;;20.09;80.40;98416.06;5004016;27;103299;-62
2023/07/26 05:41:50;;;;;;;6.28;4.43;;;;;;;19.57;81.56;98415.81;5006640;27;103036;-61
2023/07/26 05:44:19;;;;;;;5.10;4.60;;;;;;;19.85;80.57;98412.66;5015968;27;102718;-64
2023/07/26 05:46:49;;;;;;;3.27;3.07;;;;;;;20.51;79.26;98412.09;4990204;27;104163;-64
2023/07/26 05:49:20;;;;;;;5.07;4.47;;;;;;;19.85;80.83;98408.13;4993746;28;104156;-64
2023/07/26 05:51:51;;;;;;;5.43;4.85;;;;;;;19.76;82.58;98419.09;5008349;28;103405;-64
2023/07/26 05:54:21;;;;;;;5.47;4.20;;;;;;;19.85;83.00;98424.22;5014499;27;103127;-62
2023/07/26 05:56:54;;;;;;;3.40;3.20;;;;;;;20.36;82.83;98421.91;5014022;27;103134;-62
2023/07/26 05:59:25;;;;;;;3.78;3.38;;;;;;;20.51;79.28;98422.81;4988922;28;104146;-63
2023/07/26 06:01:55;;;;;;;5.40;3.80;;;;;;;20.08;79.89;98432.31;5011556;28;103179;-62
2023/07/26 06:04:30;;;;;;;5.75;4.13;;;;;;;20.05;80.62;98430.81;5002700;27;102898;-61
2023/07/26 06:07:06;;;;;;;4.90;3.77;;;;;;;20.34;81.10;98435.53;5019123;28;102961;-62
2023/07/26 06:09:41;;;;;;;4.20;3.80;;;;;;;20.17;78.41;98440.13;5015086;28;103099;-62
2023/07/26 06:12:18;;;;;;;4.20;3.50;;;;;;;20.14;78.82;98431.59;5018915;27;103155;-62
2023/07/26 06:14:52;;;;;;;2.83;2.63;;;;;;;20.61;78.10;98426.06;5017840;27;102883;-62
2023/07/26 06:17:27;;;;;;;3.72;2.80;;;;;;;21.18;76.25;98434.47;5020036;28;102794;-62
2023/07/26 06:20:04;;;;;;;3.20;2.50;;;;;;;21.06;77.42;98425.16;5021238;28;103029;-62
2023/07/26 06:22:41;;;;;;;4.20;3.57;;;;;;;20.75;77.37;98427.97;5018603;28;103290;-62
2023/07/26 06:25:16;;;;;;;5.43;4.18;;;;;;;20.00;79.09;98432.34;5020899;28;102705;-63
2023/07/26 06:27:55;;;;;;;5.68;3.58;;;;;;;20.54;76.22;98435.88;5023788;28;102627;-63
2023/07/26 06:30:27;;;;;;;4.57;3.53;;;;;;;20.72;75.89;98433.69;5019281;27;103126;-63
2023/07/26 06:32:58;;;;;;;4.70;3.42;;;;;;;20.43;78.22;98428.25;5020478;27;103314;-63
2023/07/26 06:35:29;;;;;;;3.80;3.40;;;;;;;20.54;76.84;98436.72;5021385;28;102684;-62
2023/07/26 06:37:59;;;;;;;6.43;3.20;;;;;;;20.50;76.75;98439.91;5019655;28;104312;-62
2023/07/26 06:40:31;;;;;;;3.95;2.80;;;;;;;21.13;73.24;98442.25;5021709;28;103100;-62
2023/07/26 06:43:05;;;;;;;3.55;3.10;;;;;;;20.58;74.79;98448.75;5018285;28;104792;-62
2023/07/26 06:45:36;;;;;;;4.68;3.00;;;;;;;20.83;73.60;98458.25;5015169;28;102760;-62
2023/07/26 06:48:08;;;;;;;6.47;3.40;;;;;;;20.37;76.60;98463.84;5020244;27;104020;-61
2023/07/26 06:50:42;;;;;;;3.43;2.60;;;;;;;21.31;74.28;98453.47;5020545;27;104865;-62
2023/07/26 06:53:22;;;;;;;4.95;3.00;;;;;;;21.46;75.22;98461.53;5024559;28;103059;-62
2023/07/26 06:56:00;;;;;;;4.20;3.17;;;;;;;21.26;73.92;98454.03;5024386;27;102611;-62
2023/07/26 06:58:36;;;;;;;4.15;2.80;;;;;;;21.10;75.39;98459.56;5017216;28;103242;-62
2023/07/26 07:01:16;;;;;;;4.75;3.05;;;;;;;20.68;75.65;98470.81;4997425;28;103295;-63
2023/07/26 07:03:46;;;;;;;5.45;3.10;;;;;;;20.11;77.92;98472.19;5018637;28;103134;-63
2023/07/26 07:06:25;;;;;;;5.45;2.92;;;;;;;20.66;75.46;98472.03;5021569;28;102685;-62
2023/07/26 07:08:56;;;;;;;4.05;2.83;;;;;;;20.95;75.83;98474.78;5022649;28;104000;-62
2023/07/26 07:11:27;;;;;;;5.20;3.10;;;;;;;20.88;76.38;98479.22;5020975;28;103185;-63
2023/07/26 07:14:00;;;;;;;3.33;2.75;;;;;;;21.24;75.32;98472.19;5017132;27;103204;-62
2023/07/26 07:16:30;;;;;;;3.33;2.65;;;;;;;20.70;77.04;98476.84;5018371;28;102627;-62
2023/07/26 07:19:01;;;;;;;4.63;2.57;;;;;;;21.21;76.86;98469.03;5019827;27;102871;-63
2023/07/26 07:21:31;;;;;;;3.55;2.58;;;;;;;21.08;77.53;98461.59;4999660;28;104466;-62
2023/07/26 07:24:02;;;;;;;3.03;2.53;;;;;;;20.76;78.82;98469.91;5017098;27;103028;-63
2023/07/26 07:26:32;;;;;;;2.92;2.65;;;;;;;21.07;77.59;98478.72;4997231;28;102779;-61
2023/07/26 07:29:03;;;;;;;3.10;2.80;;;;;;;20.63;78.68;98475.06;5012551;27;102679;-61
2023/07/26 07:31:32;;;;;;;3.97;2.88;;;;;;;20.38;79.65;98473.56;5012875;27;103306;-63
2023/07/26 07:34:03;;;;;;;3.95;2.78;;;;;;;20.56;79.28;98487.50;5013298;28;102984;-61
2023/07/26 07:36:31;;;;;;;3.72;2.85;;;;;;;20.70;79.13;98484.06;5015483;27;102798;-61
2023/07/26 07:39:02;;;;;;;3.28;2.88;;;;;;;20.34;79.75;98485.66;5013967;27;102666;-61
2023/07/26 07:41:32;;;;;;;4.10;3.20;;;;;;;20.73;78.41;98483.69;5019408;27;103726;-61
2023/07/26 07:44:04;;;;;;;4.25;3.00;;;;;;;21.18;77.26;98482.81;5014760;27;103521;-61
2023/07/26 07:46:33;;;;;;;2.50;2.30;;;;;;;21.33;76.81;98481.81;5020114;27;102748;-61
2023/07/26 07:49:05;;;;;;;2.50;2.30;;;;;;;21.11;78.11;98492.66;4993357;28;104118;-61
2023/07/26 07:51:34;;;;;;;3.20;2.70;;;;;;;21.01;77.16;98490.16;4988628;28;104406;-61
2023/07/26 07:54:02;;;;;;;2.60;2.40;;;;;;;21.27;76.55;98484.41;5017996;28;105223;-63
2023/07/26 07:56:31;;;;;;;4.57;3.40;;;;;;;20.33;79.32;98492.03;4991379;27;103211;-63
2023/07/26 07:59:00;;;;;;;3.30;2.80;;;;;;;20.84;78.38;98488.63;4992375;28;103058;-63
2023/07/26 08:01:31;;;;;;;3.13;2.65;;;;;;;20.99;78.90;98489.53;5009012;27;104119;-63
2023/07/26 08:04:02;;;;;;;3.13;2.83;;;;;;;21.36;77.05;98486.81;5011195;27;103283;-63
2023/07/26 08:06:32;;;;;;;3.75;3.17;;;;;;;21.24;78.19;98482.94;5016440;27;102730;-63
2023/07/26 08:09:02;;;;;;;3.90;3.38;;;;;;;20.40;78.90;98484.94;5012218;28;102751;-61
2023/07/26 08:11:31;;;;;;;4.77;3.23;;;;;;;20.86;78.46;98486.59;5011620;27;103653;-61
2023/07/26 08:14:02;;;;;;;3.78;3.00;;;;;;;20.85;79.40;98487.63;5013461;27;103205;-62
2023/07/26 08:16:33;;;;;;;3.75;2.67;;;;;;;21.20;79.90;98492.38;4992850;28;102689;-61
2023/07/26 08:19:03;;;;;;;3.63;2.97;;;;;;;21.23;77.80;98491.16;5013680;27;104367;-63
2023/07/26 08:21:32;;;;;;;3.03;2.72;;;;;;;21.20;77.26;98492.38;5014630;28;103192;-64
2023/07/26 08:24:01;;;;;;;4.88;3.50;;;;;;;20.90;79.00;98493.28;5012123;28;102981;-63
2023/07/26 08:26:31;;;;;;;3.22;2.45;;;;;;;21.48;76.35;98489.06;5012457;27;102795;-63
2023/07/26 08:29:00;;;;;;;3.05;2.85;;;;;;;21.63;75.89;98487.22;5011499;27;102858;-63
2023/07/26 08:31:29;;;;;;;3.07;2.73;;;;;;;21.69;75.13;98492.69;4996564;28;103332;-64
2023/07/26 08:34:01;;;;;;;5.40;3.10;;;;;;;21.08;77.93;98493.00;5008725;27;103318;-64
2023/07/26 08:36:30;;;;;;;3.97;3.10;;;;;;;20.90;80.00;98495.97;5008372;27;103095;-61
2023/07/26 08:38:59;;;;;;;3.75;2.80;;;;;;;21.11;77.03;98493.44;4994227;28;104182;-61
2023/07/26 08:41:29;;;;;;;3.33;2.47;;;;;;;20.89;77.87;98491.59;5009325;28;103849;-63
2023/07/26 08:44:00;;;;;;;2.70;2.30;;;;;;;21.33;75.57;98491.75;5011633;28;103006;-65
2023/07/26 08:46:35;;;;;;;2.72;2.00;;;;;;;21.63;74.24;98489.91;5000365;28;102854;-64
2023/07/26 08:49:09;;;;;;;3.20;2.33;;;;;;;21.09;75.70;98490.13;5016036;27;103082;-65
2023/07/26 08:51:40;;;;;;;3.10;1.87;;;;;;;21.18;73.06;98486.34;5011814;28;103182;-64
2023/07/26 08:54:10;;;;;;;2.05;1.90;;;;;;;21.12;73.35;98489.75;5015171;27;103457;-65
2023/07/26 08:56:44;;;;;;;3.90;2.10;;;;;;;20.67;74.41;98495.16;5016670;27;103309;-65
2023/07/26 08:59:24;;;;;;;2.20;1.90;;;;;;;21.13;72.03;98496.81;5024587;28;102943;-63
2023/07/26 09:02:09;;;;;;;2.40;1.60;;;;;;;22.13;69.23;98481.91;5022287;28;103066;-64
2023/07/26 09:04:54;;;;;;;2.67;1.50;;;;;;;23.19;66.35;98492.69;5018762;27;103476;-65
2023/07/26 09:07:25;;;;;;;4.15;1.63;;;;;;;22.80;66.31;98481.59;5019043;27;103522;-65
2023/07/26 09:09:57;;;;;;;2.20;1.55;;;;;;;22.86;65.67;98480.81;5013932;27;102707;-65
2023/07/26 09:12:29;;;;;;;1.80;1.60;;;;;;;22.11;66.71;98473.19;5012349;27;103285;-64
2023/07/26 09:15:04;;;;;;;2.58;1.70;;;;;;;21.30;69.51;98481.38;5011712;28;103456;-65
2023/07/26 09:17:40;;;;;;;1.55;1.42;;;;;;;21.59;68.85;98481.38;5015135;28;103217;-65
2023/07/26 09:20:22;;;;;;;1.60;1.20;;;;;;;21.73;67.79;98482.38;5017626;28;103680;-62
2023/07/26 09:23:00;;;;;;;1.33;1.15;;;;;;;21.41;68.56;98480.06;5012373;27;103260;-65
2023/07/26 09:25:32;;;;;;;1.70;1.20;;;;;;;21.87;65.86;98486.94;5015937;27;103343;-64
2023/07/26 09:28:03;;;;;;;1.60;1.20;;;;;;;21.67;66.95;98477.78;5016888;28;102594;-62
2023/07/26 09:30:36;;;;;;;1.83;1.10;;;;;;;21.40;66.41;98476.53;5011616;28;102916;-64
2023/07/26 09:33:07;;;;;;;1.50;0.90;;;;;;;21.23;66.94;98473.19;5009309;28;103315;-64
2023/07/26 09:35:46;;;;;;;1.97;0.93;;;;;;;21.02;67.41;98483.78;5010600;27;103342;-62
2023/07/26 09:38:18;;;;;;;0.70;0.70;;;;;;;21.98;64.77;98481.09;5012770;27;102734;-62
2023/07/26 09:40:49;;;;;;;1.08;0.98;;;;;;;22.00;64.51;98480.91;5013867;27;102766;-63
2023/07/26 09:43:29;;;;;;;1.73;1.00;;;;;;;21.68;66.39;98482.09;5016802;28;103138;-63
2023/07/26 09:46:03;;;;;;;1.20;0.90;;;;;;;21.85;66.77;98480.88;5013935;28;103291;-63
2023/07/26 09:48:36;;;;;;;0.90;0.80;;;;;;;21.29;67.23;98479.69;5010869;28;102703;-63
2023/07/26 09:51:24;;;;;;;1.33;0.80;;;;;;;21.47;67.02;98490.09;5017013;27;103060;-63
2023/07/26 09:54:00;;;;;;;0.60;0.60;;;;;;;21.27;67.29;98492.47;5014408;27;104266;-64
2023/07/26 09:56:34;;;;;;;1.08;0.90;;;;;;;20.96;68.88;98499.78;5011509;27;103279;-62
2023/07/26 09:59:06;;;;;;;1.73;0.90;;;;;;;20.68;71.75;98496.81;5014337;27;103113;-62
2023/07/26 10:01:42;;;;;;;1.20;1.10;;;;;;;20.21;74.91;98505.81;5012553;28;104047;-62
2023/07/26 10:04:14;;;;;;;1.10;0.90;;;;;;;20.89;73.96;98499.66;5019305;28;104283;-62
2023/07/26 10:06:50;;;;;;;0.80;0.80;;;;;;;21.07;73.46;98500.22;5016054;28;102973;-62
2023/07/26 10:09:32;;;;;;;1.23;1.07;;;;;;;21.19;74.29;98501.44;5019820;28;102884;-65
2023/07/26 10:12:04;;;;;;;1.08;0.85;;;;;;;21.30;72.13;98495.63;5013323;27;102748;-61
2023/07/26 10:14:34;;;;;;;1.40;1.00;;;;;;;21.73;71.38;98496.66;4992646;28;103565;-60
2023/07/26 10:17:06;;;;;;;2.20;1.00;;;;;;;21.78;70.79;98494.22;5021121;28;103911;-60
2023/07/26 10:19:39;;;;;;;1.60;0.97;;;;;;;22.17;69.70;98491.28;5014594;28;102938;-60
2023/07/26 10:22:12;;;;;;;1.00;0.90;;;;;;;22.80;68.92;98489.66;5013643;27;103058;-60
2023/07/26 10:24:44;;;;;;;1.60;0.80;;;;;;;22.83;67.27;98489.28;4988914;28;104171;-60
2023/07/26 10:27:15;;;;;;;2.05;1.10;;;;;;;22.35;71.19;98497.06;5012349;28;103041;-60
2023/07/26 10:29:51;;;;;;;1.67;1.37;;;;;;;20.98;76.38;98497.75;5017487;27;102603;-64
2023/07/26 10:32:32;;;;;;;1.83;1.45;;;;;;;22.16;71.72;98489.59;5014396;27;102925;-60
2023/07/26 10:35:33;;;;;;;1.23;1.13;;;;;;;22.95;67.94;98485.06;5010945;27;103110;-60
2023/07/26 10:38:42;;;;;;;1.40;1.30;;;;;;;23.10;65.97;98488.50;5014631;27;103278;-61
2023/07/26 10:41:52;;;;;;;2.67;1.50;;;;;;;23.49;68.08;98482.59;5014108;28;102631;-61
2023/07/26 10:44:30;;;;;;;1.65;1.50;;;;;;;23.54;64.89;98477.44;5016369;27;104036;-65
2023/07/26 10:47:30;;;;;;;1.63;1.50;;;;;;;23.11;64.75;98484.75;5016226;27;104194;-65
2023/07/26 10:53:48;;;;;;;2.10;1.40;;;;;;;23.05;64.72;98486.38;5013261;27;102699;-66
2023/07/26 10:56:30;;;;;;;2.33;1.80;;;;;;;21.85;65.22;98476.34;5011006;28;102796;-66
2023/07/26 10:59:26;;;;;;;2.80;1.57;;;;;;;22.04;66.37;98482.19;5008836;27;103242;-66
2023/07/26 11:02:05;;;;;;;2.80;1.60;;;;;;;21.95;66.26;98487.66;5014690;27;103059;-66
2023/07/26 11:04:50;;;;;;;2.28;1.90;;;;;;;21.56;66.55;98481.72;5019718;27;102838;-65
2023/07/26 11:07:58;;;;;;;1.97;1.70;;;;;;;23.30;64.45;98473.28;5019819;27;103399;-62
2023/07/26 11:10:39;;;;;;;2.30;1.52;;;;;;;23.31;63.26;98474.97;5018122;27;103019;-61
2023/07/26 11:13:18;;;;;;;2.45;1.50;;;;;;;23.01;63.72;98474.34;5019595;27;103093;-62
2023/07/26 11:16:24;;;;;;;2.05;1.65;;;;;;;23.49;64.41;98467.25;5022914;27;102592;-61
2023/07/26 11:19:03;;;;;;;2.83;1.52;;;;;;;23.90;61.52;98479.91;5021671;27;104060;-64
2023/07/26 11:25:06;;;;;;;4.05;2.20;;;;;;;24.03;58.72;98470.00;5022931;28;103352;-65
2023/07/26 11:27:41;;;;;;;3.45;1.83;;;;;;;23.97;59.22;98470.00;5026128;27;102628;-61
2023/07/26 11:30:22;;;;;;;2.20;2.00;;;;;;;24.66;55.65;98459.81;5006822;28;102844;-65
2023/07/26 11:35:55;;;;;;;2.47;1.80;;;;;;;23.72;55.95;98466.94;5022600;28;103004;-61
2023/07/26 11:38:27;;;;;;;4.10;1.93;;;;;;;24.63;54.36;98455.66;4961795;28;102944;-65
2023/07/26 11:40:57;;;;;;;3.42;1.98;;;;;;;23.71;53.42;98453.69;5015400;27;103671;-65
2023/07/26 11:43:31;;;;;;;3.45;2.45;;;;;;;22.90;55.93;98455.19;4990292;27;103371;-62
2023/07/26 11:46:02;;;;;;;2.85;1.70;;;;;;;23.94;55.03;98460.44;5008558;28;103514;-61
2023/07/26 11:48:43;;;;;;;2.15;1.95;;;;;;;24.20;55.40;98448.91;5010079;28;102661;-61
2023/07/26 11:51:36;;;;;;;2.85;2.10;;;;;;;24.76;53.94;98444.03;5015260;28;102859;-65
2023/07/26 12:01:03;;;;;;;2.30;1.93;;;;;;;25.61;50.89;98444.03;5021109;28;103036;-61
2023/07/26 12:08:19;;;;;;;3.35;2.08;;;;;;;25.58;51.10;98446.31;5020889;28;102683;-61
2023/07/26 12:10:56;;;;;;;3.30;2.08;;;;;;;24.64;52.55;98445.69;4996442;27;103383;-65